Flight Track Log - Related Links

Times and Time Zones

All times are in EDT time to prevent confusion due to time zone crossing. See the N7192Y flight status page for this flight to view local times or setup timezone preferences in your user account.

Time Position Orientation Groundspeed Altitude Reporting Facility
EDT Latitude Longitude Course Direction KTS MPH feet Rate Location/Type
Sun 03:19:22 PM 40.0264 -79.1108 265° West 117 135 3,800  Level Cleveland Center
Sun 03:20:22 PM 40.0269 -79.1542 271° West 114 131 4,500 694 Climbing Cleveland Center
Sun 03:21:23 PM 40.0275 -79.1922 271° West 107 123 5,200 645 Climbing Cleveland Center
Sun 03:22:23 PM 40.0278 -79.2303 271° West 107 123 5,800 446 Climbing Cleveland Center
Sun 03:23:24 PM 40.0264 -79.2708 267° West 113 130 6,100 148 Climbing Cleveland Center
Sun 03:24:25 PM 40.0269 -79.3197 271° West 139 160 6,100  Level Cleveland Center
Sun 03:25:25 PM 40.0275 -79.3739 271° West 142 163 6,100  Level Cleveland Center
Sun 03:26:26 PM 40.0258 -79.4256 268° West 144 166 6,100  Level Cleveland Center
Sun 03:27:27 PM 40.0264 -79.4769 271° West 143 165 6,100  Level Cleveland Center
Sun 03:29:00 PM 40.0328 -79.5592 276° West  Level FlightAware Approximate
Sun 03:36:00 PM 40.0167 -79.9323 270° West  Level FlightAware Approximate
Sun 03:37:00 PM 40.0167 -79.9857 270° West  Level FlightAware Approximate
Sun 03:38:00 PM 40.0168 -80.0390 270° West  Level FlightAware Approximate
Sun 03:39:00 PM 40.0168 -80.0924 270° West  Level FlightAware Approximate
Sun 03:40:00 PM 40.0169 -80.1458 270° West  Level FlightAware Approximate
Sun 03:41:00 PM 40.0169 -80.1991 270° West  Level FlightAware Approximate
Sun 03:41:16 PM 40.0228 -80.1900 270° West 149 171 6,100  Level Cleveland Center
Sun 03:42:00 PM 40.0169 -80.2525 270° West  Level FlightAware Approximate
Sun 03:42:15 PM 40.0250 -80.2414 273° West 151 174 6,100  Level Cleveland Center
Sun 03:43:16 PM 40.0231 -80.2903 267° West 153 176 6,100  Level Cleveland Center
Sun 03:44:00 PM 40.0168 -80.3592 270° West  Level FlightAware Approximate
Sun 03:44:15 PM 40.0211 -80.3392 267° West 147 169 6,100  Level Cleveland Center
Sun 03:45:00 PM 40.0167 -80.4126 270° West  Level FlightAware Approximate
Sun 03:45:15 PM 40.0192 -80.3906 267° West 142 163 6,100  Level Cleveland Center
Sun 03:46:00 PM 40.0167 -80.4659 270° West  Level FlightAware Approximate
Sun 03:46:16 PM 40.0211 -80.4422 273° West 142 163 6,100  Level Cleveland Center
Sun 03:47:16 PM 40.0192 -80.4883 267° West 142 163 6,100  Level Cleveland Center
Sun 03:48:16 PM 40.0172 -80.5369 267° West 142 163 6,100  Level Cleveland Center
Sun 03:49:16 PM 40.0172 -80.5858 270° West 142 163 6,100  Level Cleveland Center
Sun 03:50:15 PM 40.0150 -80.6347 267° West 142 163 6,100  Level Cleveland Center
Sun 03:51:15 PM 40.0150 -80.6861 270° West 142 163 6,100  Level Cleveland Center
Sun 03:52:16 PM 40.0150 -80.7347 270° West 142 163 6,100  Level Cleveland Center
Sun 03:53:16 PM 40.0128 -80.7864 267° West 142 163 6,100  Level Cleveland Center
Sun 03:54:16 PM 40.0128 -80.8350 270° West 142 163 6,100  Level Cleveland Center
Sun 03:55:16 PM 40.0125 -80.8839 270° West 142 163 6,100  Level Cleveland Center
Sun 03:56:16 PM 40.0103 -80.9356 267° West 142 163 6,100  Level Cleveland Center
Sun 03:57:16 PM 40.0103 -80.9869 270° West 142 163 6,100  Level Cleveland Center
Sun 03:58:16 PM 40.0100 -81.0331 270° West 142 163 6,100 -50 Level Cleveland Center
Sun 03:59:16 PM 40.0056 -81.0844 264° West 142 163 6,000 -50 Descending Cleveland Center
Sun 04:00:16 PM 40.0075 -81.1361 273° West 142 163 6,000  Level Cleveland Center
Sun 04:01:16 PM 40.0050 -81.1847 266° West 142 163 6,000  Level Cleveland Center
Sun 04:02:16 PM 40.0047 -81.2364 270° West 142 163 6,000  Level Cleveland Center
Sun 04:03:16 PM 40.0025 -81.2850 267° West 142 163 6,000  Level Cleveland Center
Sun 04:04:38 PM 39.9983 -81.3622 266° West 140 161 6,000  Level Indianapolis Center
Sun 04:05:39 PM 39.9969 -81.4158 268° West 146 168 6,000  Level Indianapolis Center
Sun 04:06:40 PM 39.9961 -81.4675 269° West 144 166 6,000  Level Indianapolis Center
Sun 04:07:42 PM 39.9947 -81.5194 268° West 143 165 6,000 49 Level Indianapolis Center
Sun 04:08:43 PM 39.9931 -81.5700 268° West 139 160 6,100 49 Climbing Indianapolis Center
Sun 04:09:44 PM 39.9928 -81.6222 270° West 141 162 6,100  Level Indianapolis Center
Sun 04:10:45 PM 39.9906 -81.6736 267° West 141 162 6,100  Level Indianapolis Center
Sun 04:11:47 PM 39.9894 -81.7258 268° West 141 162 6,100  Level Indianapolis Center
Sun 04:12:48 PM 39.9886 -81.7792 269° West 141 162 6,100  Level Indianapolis Center
Sun 04:13:49 PM 39.9867 -81.8300 267° West 140 161 6,100  Level Indianapolis Center
Sun 04:14:50 PM 39.9858 -81.8814 269° West 140 161 6,100  Level Indianapolis Center
Sun 04:15:52 PM 39.9847 -81.9314 268° West 140 161 6,100  Level Indianapolis Center
Sun 04:16:53 PM 39.9831 -81.9817 268° West 138 159 6,100  Level Indianapolis Center
Sun 04:17:54 PM 39.9814 -82.0331 268° West 142 163 6,100  Level Indianapolis Center
Sun 04:18:55 PM 39.9800 -82.0933 268° West 140 161 6,100  Level Indianapolis Center
Sun 04:19:25 PM 39.9797 -82.1203 269° West 140 161 6,100  Level Indianapolis Center
Sun 04:19:57 PM 39.9778 -82.1442 264° West 140 161 6,100  Level Indianapolis Center
Sun 04:20:58 PM 39.9761 -82.1950 268° West 143 165 6,100  Level Indianapolis Center
Sun 04:21:59 PM 39.9758 -82.2450 270° West 139 160 6,100  Level Indianapolis Center
Sun 04:22:34 PM 39.9744 -82.2750 267° West 138 159 6,100  Level Indianapolis Center
Sun 04:23:35 PM 39.9736 -82.3294 269° West 137 158 6,100  Level Indianapolis Center
Sun 04:24:29 PM 39.9722 -82.3703 267° West 136 157 6,100  Level Indianapolis Center
Sun 04:25:03 PM 39.9706 -82.3931 265° West 138 159 6,100  Level Indianapolis Center
Sun 04:26:04 PM 39.9692 -82.4428 268° West 138 159 6,100  Level Indianapolis Center
Sun 04:27:06 PM 39.9694 -82.4917 270° West 136 157 6,100  Level Indianapolis Center
Sun 04:28:07 PM 39.9739 -82.5414 277° West 138 159 6,100  Level Indianapolis Center
Sun 04:28:39 PM 39.9725 -82.5750 267° West 138 159 6,100  Level Indianapolis Center
Sun 04:29:45 PM 39.9692 -82.6317 266° West 137 158 6,100  Level Indianapolis Center
Sun 04:30:46 PM 39.9669 -82.6806 267° West 134 154 6,100  Level Indianapolis Center
Sun 04:31:47 PM 39.9644 -82.7292 266° West 133 153 6,100  Level Indianapolis Center
Sun 04:32:42 PM 39.9606 -82.7722 263° West 134 154 6,100  Level Indianapolis Center
Sun 04:33:14 PM 39.9603 -82.7947 269° West 135 155 6,100  Level Indianapolis Center
Sun 04:34:15 PM 39.9600 -82.8442 270° West 136 157 6,100  Level Indianapolis Center
Sun 04:35:16 PM 39.9603 -82.8936 270° West 136 157 6,100  Level Indianapolis Center
Sun 04:36:17 PM 39.9586 -82.9419 267° West 135 155 6,100  Level Indianapolis Center
Sun 04:37:19 PM 39.9550 -82.9911 265° West 136 157 6,100  Level Indianapolis Center
Sun 04:38:20 PM 39.9533 -83.0397 267° West 134 154 6,100  Level Indianapolis Center
Sun 04:39:21 PM 39.9503 -83.0967 266° West 133 153 6,100  Level Indianapolis Center
Sun 04:39:54 PM 39.9483 -83.1197 264° West 131 151 6,100  Level Indianapolis Center
Sun 04:40:49 PM 39.9483 -83.1633 270° West 131 151 6,100  Level Indianapolis Center
Sun 04:41:24 PM 39.9461 -83.1917 264° West 133 153 6,100  Level Indianapolis Center
Sun 04:42:25 PM 39.9444 -83.2392 267° West 132 152 6,100  Level Indianapolis Center
Sun 04:43:27 PM 39.9425 -83.2878 267° West 133 153 6,100  Level Indianapolis Center
Sun 04:43:57 PM 39.9419 -83.3153 268° West 132 152 6,100  Level Indianapolis Center
Sun 04:44:28 PM 39.9406 -83.3356 265° West 133 153 6,100  Level Indianapolis Center
Sun 04:45:29 PM 39.9386 -83.3825 267° West 132 152 6,100  Level Indianapolis Center
Sun 04:46:31 PM 39.9375 -83.4303 268° West 133 153 6,100  Level Indianapolis Center
Sun 04:47:32 PM 39.9397 -83.4864 273° West 132 152 6,100  Level Indianapolis Center
Sun 04:48:33 PM 39.9411 -83.5336 272° West 132 152 6,100 -49 Level Indianapolis Center
Sun 04:49:35 PM 39.9428 -83.5811 273° West 132 152 6,000 -390 Descending Indianapolis Center
Sun 04:50:36 PM 39.9406 -83.6333 267° West 139 160 5,300 -639 Descending Indianapolis Center
Sun 04:51:37 PM 39.9422 -83.6917 272° West 151 174 4,700 -634 Descending Indianapolis Center
Sun 04:52:39 PM 39.9431 -83.7500 271° West 158 182 4,000 -634 Descending Indianapolis Center
Sun 04:53:40 PM 39.9433 -83.8092 270° West 161 185 3,400 -443 Descending Indianapolis Center
Sun 04:54:41 PM 39.9444 -83.8778 271° West 160 184 3,100 -148 Descending Indianapolis Center
Sun 04:55:42 PM 39.9447 -83.9308 270° West 154 177 3,100  Level Indianapolis Center
Sun 04:56:44 PM 39.9464 -83.9822 272° West 149 171 3,100  Level Indianapolis Center
Sun 04:57:45 PM 39.9461 -84.0300 270° West 141 162 3,100 -49 Level Indianapolis Center
Sun 04:58:46 PM 39.9469 -84.0758 271° West 133 153 3,000 -146 Descending Indianapolis Center
Sun 04:59:48 PM 39.9469 -84.1164 270° West 123 142 2,800 -439 Descending Indianapolis Center
Sun 05:00:49 PM 39.9308 -84.1458 234° Southwest 107 123 2,100 -393 Descending Indianapolis Center
Sun 05:01:50 PM 39.9144 -84.1728 232° Southwest 105 121 2,000 -442 Descending Indianapolis Center
Sun 05:02:24 PM 39.9072 -84.1917 244° Southwest 77 89 1,400 -1,059 Descending Indianapolis Center
Sun 05:04:00 PM 39.9000 -84.2167 267° West  Level FlightAware Approximate
Sun 05:11:00 PM 39.9022 -84.2194 267° West  Level Estimated

Login

Don't have an account? Register now (free) for customized features, flight alerts, and more!